Gaz Unity — HOEJ — position and weather

sailwx.info

Track history (hours):
 
Tides and Currents Weather Stations Pressure Air Temp Water Temp Dewpoint Dewpoint Depression Visibility Wind Speed Wind Dir Waves Ship Positions

Gaz Unity

Last reported at 2015-Aug-03 09:33 UTC. Time now 2015-Aug-04 17:57 UTC.
Position N 35°37' E 015°12'.

; draft 8.9 m.

Type: Ship (hazmat cat C). MMSI: 353956000.

Date/timePositionNaut miles runAvg speedWind from/ knotsBaromVisibWave heightAir tempDewpointWater temp
2015-Aug-03 09:33N 35°37' E 015°12'0 0.5
2015-Aug-03 08:33N 35°37' E 015°12'0 0.3
2015-Aug-03 07:33N 35°37' E 015°12'0 0.3
2015-Aug-03 06:33N 35°37' E 015°11'0 0.4
2015-Aug-03 05:34N 35°37' E 015°11'0 0.3
2015-Aug-03 04:33N 35°37' E 015°10'0 0.3
2015-Aug-03 03:33N 35°37' E 015°10'0 0.3
2015-Aug-03 02:34N 35°37' E 015°10'0 0.4
2015-Aug-03 01:33N 35°37' E 015°09'0 0.4
2015-Aug-03 00:33N 35°36' E 015°09'0 0.4
2015-Aug-02 23:33N 35°36' E 015°09'0 0.4
2015-Aug-02 22:19N 35°35' E 015°09'0 0.4
2015-Aug-02 21:33N 35°35' E 015°09'0 0.4
2015-Aug-02 20:33N 35°35' E 015°09'0 0.5
2015-Aug-02 19:33N 35°34' E 015°09'0 0.4
2015-Aug-02 18:32N 35°34' E 015°09'0 0.5
2015-Aug-02 17:33N 35°34' E 015°09'0 0.4
2015-Aug-02 16:33N 35°33' E 015°10'0 0.4
2015-Aug-02 15:32N 35°33' E 015°10'0 0.5
2015-Aug-02 14:33N 35°33' E 015°11'1 0.5
2015-Aug-02 13:33N 35°33' E 015°11'1 0.6
2015-Aug-02 12:33N 35°33' E 015°12'1 0.6
2015-Aug-02 11:34N 35°33' E 015°13'1 0.6
2015-Aug-02 10:33N 35°33' E 015°14'1 0.6
2015-Aug-02 09:33N 35°33' E 015°14'0 0.3
2015-Aug-02 08:33N 35°34' E 015°14'0 0.3
2015-Aug-02 07:33N 35°34' E 015°15'0 0.2
2015-Aug-02 06:33N 35°34' E 015°15'0 0.2
2015-Aug-02 05:33N 35°34' E 015°15'0 0.2
2015-Aug-02 04:33N 35°34' E 015°15'0 0.1
2015-Aug-02 03:33N 35°34' E 015°15'0 0.2
2015-Aug-02 02:33N 35°34' E 015°15'0 0.2
2015-Aug-02 01:33N 35°35' E 015°15'0 0.1
2015-Aug-02 00:33N 35°34' E 015°15'0 0.2
2015-Aug-01 23:33N 35°34' E 015°15'0 0.2
2015-Aug-01 22:33N 35°34' E 015°15'0 0.4
2015-Aug-01 21:33N 35°34' E 015°15'0 0.5
2015-Aug-01 20:33N 35°33' E 015°16'1 0.5
2015-Aug-01 19:33N 35°33' E 015°16'1 0.7
2015-Aug-01 18:33N 35°33' E 015°17'1 0.6
2015-Aug-01 17:33N 35°33' E 015°18'1 0.6
2015-Aug-01 16:32N 35°33' E 015°18'1 0.5
2015-Aug-01 15:33N 35°33' E 015°19'1 0.5
2015-Aug-01 14:33N 35°33' E 015°19'1 0.5
2015-Aug-01 13:33N 35°34' E 015°20'1 0.5
2015-Aug-01 12:33N 35°34' E 015°20'1 0.6
2015-Aug-01 11:33N 35°35' E 015°20'1 0.6
2015-Aug-01 10:33N 35°35' E 015°20'1 0.6
2015-Aug-01 09:33N 35°36' E 015°20'1 0.6
2015-Aug-01 08:07N 35°37' E 015°19'0 0.5
2015-Aug-01 07:33N 35°37' E 015°19'0 0.5
2015-Aug-01 06:33N 35°37' E 015°19'0 0.4
2015-Aug-01 05:33N 35°37' E 015°18'0 0.3
2015-Aug-01 04:33N 35°38' E 015°18'0 0.3
2015-Aug-01 03:33N 35°38' E 015°18'0 0.4
2015-Aug-01 02:26N 35°38' E 015°17'0 0.4
2015-Aug-01 01:33N 35°38' E 015°17'0 0.3
2015-Aug-01 00:33N 35°38' E 015°16'0 0.3
2015-Jul-31 23:34N 35°38' E 015°16'0 0.2
2015-Jul-31 22:33N 35°38' E 015°16'0 0.1
2015-Jul-31 21:33N 35°38' E 015°15'0 0.2
2015-Jul-31 20:33N 35°38' E 015°15'0 0.3
2015-Jul-31 19:33N 35°38' E 015°15'0 0.2
2015-Jul-31 18:33N 35°38' E 015°15'0 0.2
2015-Jul-31 17:33N 35°38' E 015°15'0 0.1
2015-Jul-31 16:33N 35°38' E 015°15'0 0.3
2015-Jul-31 15:33N 35°38' E 015°15'1 1.1
2015-Jul-31 14:33N 35°37' E 015°15'5 5.2
2015-Jul-31 13:33N 35°32' E 015°15'3 2.6
2015-Jul-31 12:33N 35°29' E 015°15'1 0.4
2015-Jul-31 11:18N 35°29' E 015°14'0 0.4
2015-Jul-31 10:33N 35°30' E 015°14'0 0.2
2015-Jul-31 09:33N 35°29' E 015°14'4 3.8
2015-Jul-31 08:33N 35°27' E 015°18'5 5.0
2015-Jul-31 07:33N 35°25' E 015°23'5 5.2
2015-Jul-31 06:33N 35°22' E 015°28'7 3.4
2015-Jul-31 04:31N 35°18' E 015°35'3 0.9
2015-Jul-31 01:33N 35°17' E 015°32'2 0.8
2015-Jul-30 23:32N 35°17' E 015°30'1 0.9
2015-Jul-30 22:33N 35°17' E 015°29'1 1.0
2015-Jul-30 21:33N 35°17' E 015°28'1 1.0
2015-Jul-30 20:33N 35°17' E 015°27'1 0.9
2015-Jul-30 19:33N 35°17' E 015°25'1 0.9
2015-Jul-30 18:33N 35°16' E 015°24'2 1.0
2015-Jul-30 16:34N 35°16' E 015°22'1 0.8
2015-Jul-30 15:30N 35°15' E 015°21'1 0.7
2015-Jul-30 14:33N 35°15' E 015°21'1 0.7
2015-Jul-30 13:17N 35°15' E 015°20'1 0.6
2015-Jul-30 11:24N 35°14' E 015°18'0 0.4
2015-Jul-30 10:33N 35°14' E 015°18'0 0.4
2015-Jul-30 09:33N 35°14' E 015°17'1 0.5
2015-Jul-30 08:24N 35°13' E 015°17'0 0.4
2015-Jul-30 07:33N 35°13' E 015°16'0 0.5
2015-Jul-30 06:33N 35°13' E 015°16'0 0.4
2015-Jul-30 05:33N 35°13' E 015°15'1 0.5
2015-Jul-30 04:33N 35°13' E 015°15'1 0.6
2015-Jul-30 03:34N 35°13' E 015°14'1 0.6
2015-Jul-30 02:33N 35°13' E 015°13'1 0.7
2015-Jul-30 01:33N 35°13' E 015°12'1 0.7
2015-Jul-30 00:25N 35°13' E 015°11'1 0.8
2015-Jul-29 23:33N 35°13' E 015°11'1 0.8
2015-Jul-29 22:33N 35°12' E 015°10'1 0.8
2015-Jul-29 21:21N 35°12' E 015°09'1 0.7
2015-Jul-29 20:33N 35°12' E 015°08'1 0.6
2015-Jul-29 19:33N 35°11' E 015°07'1 0.5
2015-Jul-29 18:27N 35°11' E 015°07'1 0.3
2015-Jul-29 16:24N 35°11' E 015°06'0 0.3
2015-Jul-29 15:33N 35°11' E 015°06'0 0.2
2015-Jul-29 14:33N 35°11' E 015°05'0 0.3
2015-Jul-29 13:33N 35°11' E 015°05'0 0.3
2015-Jul-29 12:32N 35°11' E 015°05'0 0.3
2015-Jul-29 11:34N 35°11' E 015°05'0 0.4
2015-Jul-29 10:31N 35°11' E 015°04'1 0.5
2015-Jul-29 09:20N 35°12' E 015°04'0 0.5
2015-Jul-29 08:33N 35°12' E 015°04'0 0.5
2015-Jul-29 07:33N 35°12' E 015°03'0 0.5
2015-Jul-29 06:34N 35°12' E 015°02'1 0.5
2015-Jul-29 05:19N 35°12' E 015°02'0 0.5
2015-Jul-29 04:33N 35°12' E 015°01'1 0.5
2015-Jul-29 03:15N 35°13' E 015°00'0 0.5
2015-Jul-29 02:34N 35°13' E 014°60'1 0.3
2015-Jul-28 23:33N 35°13' E 014°59'0 0.3
2015-Jul-28 22:33N 35°14' E 014°59'0 0.3
2015-Jul-28 21:33N 35°14' E 014°59'0 0.4
2015-Jul-28 20:34N 35°14' E 014°59'0 0.5
2015-Jul-28 19:32N 35°15' E 014°58'0 0.5
2015-Jul-28 18:34N 35°15' E 014°58'1 0.5
2015-Jul-28 17:33N 35°15' E 014°57'0 0.5
2015-Jul-28 16:34N 35°15' E 014°57'0 0.4
2015-Jul-28 15:33N 35°16' E 014°56'0 0.3
2015-Jul-28 14:33N 35°16' E 014°56'0 0.2
2015-Jul-28 13:33N 35°16' E 014°56'0 0.1
2015-Jul-28 12:34N 35°16' E 014°56'0 0.1
2015-Jul-28 11:33N 35°16' E 014°56'0 0.2
2015-Jul-28 10:34N 35°16' E 014°56'0 0.2
2015-Jul-28 09:33N 35°16' E 014°56'0 0.2
2015-Jul-28 08:30N 35°16' E 014°56'0 0.2
2015-Jul-28 07:33N 35°17' E 014°56'4 3.1
2015-Jul-28 06:23N 35°14' E 014°54'2 1.9
2015-Jul-28 05:29N 35°12' E 014°52'0 0.3
2015-Jul-28 04:33N 35°12' E 014°52'1 0.4
2015-Jul-28 02:32N 35°13' E 014°51'0 0.4
2015-Jul-28 01:33N 35°13' E 014°51'1 0.5
2015-Jul-27 23:30N 35°14' E 014°50'1 0.6
2015-Jul-27 22:28N 35°15' E 014°50'1 0.7
2015-Jul-27 21:33N 35°15' E 014°50'1 0.7
2015-Jul-27 20:31N 35°16' E 014°49'1 0.7
2015-Jul-27 19:34N 35°16' E 014°48'1 0.7
2015-Jul-27 18:33N 35°17' E 014°48'1 0.6
2015-Jul-27 17:31N 35°17' E 014°47'1 0.5
2015-Jul-27 16:20N 35°18' E 014°47'0 0.3
2015-Jul-27 15:31N 35°18' E 014°47'0 0.4
2015-Jul-27 14:33N 35°18' E 014°46'0 0.4
2015-Jul-27 13:33N 35°19' E 014°46'0 0.4
2015-Jul-27 12:33N 35°19' E 014°46'1 0.7
2015-Jul-27 11:33N 35°20' E 014°47'1 0.8
2015-Jul-27 10:33N 35°20' E 014°47'1 0.9
2015-Jul-27 09:33N 35°21' E 014°47'1 0.9
2015-Jul-27 08:34N 35°22' E 014°47'1 1.0
2015-Jul-27 07:20N 35°23' E 014°47'1 1.0
2015-Jul-27 06:13N 35°24' E 014°47'1 1.0
2015-Jul-27 05:29N 35°25' E 014°47'3 0.9
2015-Jul-27 02:30N 35°28' E 014°46'1 0.7
2015-Jul-27 01:33N 35°28' E 014°46'1 0.7
2015-Jul-27 00:32N 35°29' E 014°45'1 0.7
2015-Jul-26 23:34N 35°30' E 014°45'1 0.6
2015-Jul-26 22:33N 35°30' E 014°44'0 0.5
2015-Jul-26 21:34N 35°30' E 014°44'0 0.4
2015-Jul-26 20:34N 35°30' E 014°43'0 0.3
2015-Jul-26 19:34N 35°30' E 014°43'0 0.2
2015-Jul-26 18:33N 35°30' E 014°43'0 0.4
2015-Jul-26 17:33N 35°31' E 014°43'1 0.6
2015-Jul-26 16:34N 35°31' E 014°44'1 0.6
2015-Jul-26 15:33N 35°31' E 014°44'0 0.5
2015-Jul-26 14:33N 35°32' E 014°44'2 1.9
2015-Jul-26 13:33N 35°32' E 014°47'1212.1
2015-Jul-26 12:33N 35°32' E 015°02'1312.9
2015-Jul-26 11:33N 35°30' E 015°17'1312.7
2015-Jul-26 10:33N 35°27' E 015°32'9 8.9
2015-Jul-26 09:33N 35°25' E 015°43'4 0.6
2015-Jul-26 02:27N 35°25' E 015°38'1 0.7
2015-Jul-26 01:33N 35°25' E 015°37'1 0.5
2015-Jul-26 00:32N 35°25' E 015°37'0 0.4
2015-Jul-25 23:33N 35°25' E 015°36'0 0.3
2015-Jul-25 22:33N 35°25' E 015°36'1 0.3
2015-Jul-25 20:07N 35°26' E 015°36'6 0.7
2015-Jul-25 10:28N 35°32' E 015°34'4 0.9
2015-Jul-25 06:32N 35°30' E 015°30'5 5.4
2015-Jul-25 05:33N 35°25' E 015°29'1 0.9
2015-Jul-25 04:33N 35°24' E 015°28'1 0.7
2015-Jul-25 03:32N 35°24' E 015°27'1 0.5
2015-Jul-25 02:33N 35°24' E 015°27'0 0.3
2015-Jul-25 01:30N 35°24' E 015°26'0 0.1
2015-Jul-24 22:18N 35°24' E 015°27'0 0.2
2015-Jul-24 21:33N 35°24' E 015°27'1 0.5
2015-Jul-24 19:23N 35°25' E 015°27'1 0.7
2015-Jul-24 18:33N 35°25' E 015°27'3 0.5
2015-Jul-24 12:28N 35°27' E 015°24'  
Track history (hours):
 
Tides and Currents Weather Stations Pressure Air Temp Water Temp Dewpoint Dewpoint Depression Visibility Wind Speed Wind Dir Waves Ship Positions

Gaz Unity

Last reported at 2015-Aug-03 09:33 UTC. Time now 2015-Aug-04 17:57 UTC.
Position N 35°37' E 015°12'.

; draft 8.9 m.

Type: Ship (hazmat cat C). MMSI: 353956000.

Date/timePositionNaut miles runAvg speedWind from/ knotsBaromVisibWave heightAir tempDewpointWater temp
2015-Aug-03 09:33N 35°37' E 015°12'0 0.5
2015-Aug-03 08:33N 35°37' E 015°12'0 0.3
2015-Aug-03 07:33N 35°37' E 015°12'0 0.3
2015-Aug-03 06:33N 35°37' E 015°11'0 0.4
2015-Aug-03 05:34N 35°37' E 015°11'0 0.3
2015-Aug-03 04:33N 35°37' E 015°10'0 0.3
2015-Aug-03 03:33N 35°37' E 015°10'0 0.3
2015-Aug-03 02:34N 35°37' E 015°10'0 0.4
2015-Aug-03 01:33N 35°37' E 015°09'0 0.4
2015-Aug-03 00:33N 35°36' E 015°09'0 0.4
2015-Aug-02 23:33N 35°36' E 015°09'0 0.4
2015-Aug-02 22:19N 35°35' E 015°09'0 0.4
2015-Aug-02 21:33N 35°35' E 015°09'0 0.4
2015-Aug-02 20:33N 35°35' E 015°09'0 0.5
2015-Aug-02 19:33N 35°34' E 015°09'0 0.4
2015-Aug-02 18:32N 35°34' E 015°09'0 0.5
2015-Aug-02 17:33N 35°34' E 015°09'0 0.4
2015-Aug-02 16:33N 35°33' E 015°10'0 0.4
2015-Aug-02 15:32N 35°33' E 015°10'0 0.5
2015-Aug-02 14:33N 35°33' E 015°11'1 0.5
2015-Aug-02 13:33N 35°33' E 015°11'1 0.6
2015-Aug-02 12:33N 35°33' E 015°12'1 0.6
2015-Aug-02 11:34N 35°33' E 015°13'1 0.6
2015-Aug-02 10:33N 35°33' E 015°14'1 0.6
2015-Aug-02 09:33N 35°33' E 015°14'0 0.3
2015-Aug-02 08:33N 35°34' E 015°14'0 0.3
2015-Aug-02 07:33N 35°34' E 015°15'0 0.2
2015-Aug-02 06:33N 35°34' E 015°15'0 0.2
2015-Aug-02 05:33N 35°34' E 015°15'0 0.2
2015-Aug-02 04:33N 35°34' E 015°15'0 0.1
2015-Aug-02 03:33N 35°34' E 015°15'0 0.2
2015-Aug-02 02:33N 35°34' E 015°15'0 0.2
2015-Aug-02 01:33N 35°35' E 015°15'0 0.1
2015-Aug-02 00:33N 35°34' E 015°15'0 0.2
2015-Aug-01 23:33N 35°34' E 015°15'0 0.2
2015-Aug-01 22:33N 35°34' E 015°15'0 0.4
2015-Aug-01 21:33N 35°34' E 015°15'0 0.5
2015-Aug-01 20:33N 35°33' E 015°16'1 0.5
2015-Aug-01 19:33N 35°33' E 015°16'1 0.7
2015-Aug-01 18:33N 35°33' E 015°17'1 0.6
2015-Aug-01 17:33N 35°33' E 015°18'1 0.6
2015-Aug-01 16:32N 35°33' E 015°18'1 0.5
2015-Aug-01 15:33N 35°33' E 015°19'1 0.5
2015-Aug-01 14:33N 35°33' E 015°19'1 0.5
2015-Aug-01 13:33N 35°34' E 015°20'1 0.5
2015-Aug-01 12:33N 35°34' E 015°20'1 0.6
2015-Aug-01 11:33N 35°35' E 015°20'1 0.6
2015-Aug-01 10:33N 35°35' E 015°20'1 0.6
2015-Aug-01 09:33N 35°36' E 015°20'1 0.6
2015-Aug-01 08:07N 35°37' E 015°19'0 0.5
2015-Aug-01 07:33N 35°37' E 015°19'0 0.5
2015-Aug-01 06:33N 35°37' E 015°19'0 0.4
2015-Aug-01 05:33N 35°37' E 015°18'0 0.3
2015-Aug-01 04:33N 35°38' E 015°18'0 0.3
2015-Aug-01 03:33N 35°38' E 015°18'0 0.4
2015-Aug-01 02:26N 35°38' E 015°17'0 0.4
2015-Aug-01 01:33N 35°38' E 015°17'0 0.3
2015-Aug-01 00:33N 35°38' E 015°16'0 0.3
2015-Jul-31 23:34N 35°38' E 015°16'0 0.2
2015-Jul-31 22:33N 35°38' E 015°16'0 0.1
2015-Jul-31 21:33N 35°38' E 015°15'0 0.2
2015-Jul-31 20:33N 35°38' E 015°15'0 0.3
2015-Jul-31 19:33N 35°38' E 015°15'0 0.2
2015-Jul-31 18:33N 35°38' E 015°15'0 0.2
2015-Jul-31 17:33N 35°38' E 015°15'0 0.1
2015-Jul-31 16:33N 35°38' E 015°15'0 0.3
2015-Jul-31 15:33N 35°38' E 015°15'1 1.1
2015-Jul-31 14:33N 35°37' E 015°15'5 5.2
2015-Jul-31 13:33N 35°32' E 015°15'3 2.6
2015-Jul-31 12:33N 35°29' E 015°15'1 0.4
2015-Jul-31 11:18N 35°29' E 015°14'0 0.4
2015-Jul-31 10:33N 35°30' E 015°14'0 0.2
2015-Jul-31 09:33N 35°29' E 015°14'4 3.8
2015-Jul-31 08:33N 35°27' E 015°18'5 5.0
2015-Jul-31 07:33N 35°25' E 015°23'5 5.2
2015-Jul-31 06:33N 35°22' E 015°28'7 3.4
2015-Jul-31 04:31N 35°18' E 015°35'3 0.9
2015-Jul-31 01:33N 35°17' E 015°32'2 0.8
2015-Jul-30 23:32N 35°17' E 015°30'1 0.9
2015-Jul-30 22:33N 35°17' E 015°29'1 1.0
2015-Jul-30 21:33N 35°17' E 015°28'1 1.0
2015-Jul-30 20:33N 35°17' E 015°27'1 0.9
2015-Jul-30 19:33N 35°17' E 015°25'1 0.9
2015-Jul-30 18:33N 35°16' E 015°24'2 1.0
2015-Jul-30 16:34N 35°16' E 015°22'1 0.8
2015-Jul-30 15:30N 35°15' E 015°21'1 0.7
2015-Jul-30 14:33N 35°15' E 015°21'1 0.7
2015-Jul-30 13:17N 35°15' E 015°20'1 0.6
2015-Jul-30 11:24N 35°14' E 015°18'0 0.4
2015-Jul-30 10:33N 35°14' E 015°18'0 0.4
2015-Jul-30 09:33N 35°14' E 015°17'1 0.5
2015-Jul-30 08:24N 35°13' E 015°17'0 0.4
2015-Jul-30 07:33N 35°13' E 015°16'0 0.5
2015-Jul-30 06:33N 35°13' E 015°16'0 0.4
2015-Jul-30 05:33N 35°13' E 015°15'1 0.5
2015-Jul-30 04:33N 35°13' E 015°15'1 0.6
2015-Jul-30 03:34N 35°13' E 015°14'1 0.6
2015-Jul-30 02:33N 35°13' E 015°13'1 0.7
2015-Jul-30 01:33N 35°13' E 015°12'1 0.7
2015-Jul-30 00:25N 35°13' E 015°11'1 0.8
2015-Jul-29 23:33N 35°13' E 015°11'1 0.8
2015-Jul-29 22:33N 35°12' E 015°10'1 0.8
2015-Jul-29 21:21N 35°12' E 015°09'1 0.7
2015-Jul-29 20:33N 35°12' E 015°08'1 0.6
2015-Jul-29 19:33N 35°11' E 015°07'1 0.5
2015-Jul-29 18:27N 35°11' E 015°07'1 0.3
2015-Jul-29 16:24N 35°11' E 015°06'0 0.3
2015-Jul-29 15:33N 35°11' E 015°06'0 0.2
2015-Jul-29 14:33N 35°11' E 015°05'0 0.3
2015-Jul-29 13:33N 35°11' E 015°05'0 0.3
2015-Jul-29 12:32N 35°11' E 015°05'0 0.3
2015-Jul-29 11:34N 35°11' E 015°05'0 0.4
2015-Jul-29 10:31N 35°11' E 015°04'1 0.5
2015-Jul-29 09:20N 35°12' E 015°04'0 0.5
2015-Jul-29 08:33N 35°12' E 015°04'0 0.5
2015-Jul-29 07:33N 35°12' E 015°03'0 0.5
2015-Jul-29 06:34N 35°12' E 015°02'1 0.5
2015-Jul-29 05:19N 35°12' E 015°02'0 0.5
2015-Jul-29 04:33N 35°12' E 015°01'1 0.5
2015-Jul-29 03:15N 35°13' E 015°00'0 0.5
2015-Jul-29 02:34N 35°13' E 014°60'1 0.3
2015-Jul-28 23:33N 35°13' E 014°59'0 0.3
2015-Jul-28 22:33N 35°14' E 014°59'0 0.3
2015-Jul-28 21:33N 35°14' E 014°59'0 0.4
2015-Jul-28 20:34N 35°14' E 014°59'0 0.5
2015-Jul-28 19:32N 35°15' E 014°58'0 0.5
2015-Jul-28 18:34N 35°15' E 014°58'1 0.5
2015-Jul-28 17:33N 35°15' E 014°57'0 0.5
2015-Jul-28 16:34N 35°15' E 014°57'0 0.4
2015-Jul-28 15:33N 35°16' E 014°56'0 0.3
2015-Jul-28 14:33N 35°16' E 014°56'0 0.2
2015-Jul-28 13:33N 35°16' E 014°56'0 0.1
2015-Jul-28 12:34N 35°16' E 014°56'0 0.1
2015-Jul-28 11:33N 35°16' E 014°56'0 0.2
2015-Jul-28 10:34N 35°16' E 014°56'0 0.2
2015-Jul-28 09:33N 35°16' E 014°56'0 0.2
2015-Jul-28 08:30N 35°16' E 014°56'0 0.2
2015-Jul-28 07:33N 35°17' E 014°56'4 3.1
2015-Jul-28 06:23N 35°14' E 014°54'2 1.9
2015-Jul-28 05:29N 35°12' E 014°52'0 0.3
2015-Jul-28 04:33N 35°12' E 014°52'1 0.4
2015-Jul-28 02:32N 35°13' E 014°51'0 0.4
2015-Jul-28 01:33N 35°13' E 014°51'1 0.5
2015-Jul-27 23:30N 35°14' E 014°50'1 0.6
2015-Jul-27 22:28N 35°15' E 014°50'1 0.7
2015-Jul-27 21:33N 35°15' E 014°50'1 0.7
2015-Jul-27 20:31N 35°16' E 014°49'1 0.7
2015-Jul-27 19:34N 35°16' E 014°48'1 0.7
2015-Jul-27 18:33N 35°17' E 014°48'1 0.6
2015-Jul-27 17:31N 35°17' E 014°47'1 0.5
2015-Jul-27 16:20N 35°18' E 014°47'0 0.3
2015-Jul-27 15:31N 35°18' E 014°47'0 0.4
2015-Jul-27 14:33N 35°18' E 014°46'0 0.4
2015-Jul-27 13:33N 35°19' E 014°46'0 0.4
2015-Jul-27 12:33N 35°19' E 014°46'1 0.7
2015-Jul-27 11:33N 35°20' E 014°47'1 0.8
2015-Jul-27 10:33N 35°20' E 014°47'1 0.9
2015-Jul-27 09:33N 35°21' E 014°47'1 0.9
2015-Jul-27 08:34N 35°22' E 014°47'1 1.0
2015-Jul-27 07:20N 35°23' E 014°47'1 1.0
2015-Jul-27 06:13N 35°24' E 014°47'1 1.0
2015-Jul-27 05:29N 35°25' E 014°47'3 0.9
2015-Jul-27 02:30N 35°28' E 014°46'1 0.7
2015-Jul-27 01:33N 35°28' E 014°46'1 0.7
2015-Jul-27 00:32N 35°29' E 014°45'1 0.7
2015-Jul-26 23:34N 35°30' E 014°45'1 0.6
2015-Jul-26 22:33N 35°30' E 014°44'0 0.5
2015-Jul-26 21:34N 35°30' E 014°44'0 0.4
2015-Jul-26 20:34N 35°30' E 014°43'0 0.3
2015-Jul-26 19:34N 35°30' E 014°43'0 0.2
2015-Jul-26 18:33N 35°30' E 014°43'0 0.4
2015-Jul-26 17:33N 35°31' E 014°43'1 0.6
2015-Jul-26 16:34N 35°31' E 014°44'1 0.6
2015-Jul-26 15:33N 35°31' E 014°44'0 0.5
2015-Jul-26 14:33N 35°32' E 014°44'2 1.9
2015-Jul-26 13:33N 35°32' E 014°47'1212.1
2015-Jul-26 12:33N 35°32' E 015°02'1312.9
2015-Jul-26 11:33N 35°30' E 015°17'1312.7
2015-Jul-26 10:33N 35°27' E 015°32'9 8.9
2015-Jul-26 09:33N 35°25' E 015°43'4 0.6
2015-Jul-26 02:27N 35°25' E 015°38'1 0.7
2015-Jul-26 01:33N 35°25' E 015°37'1 0.5
2015-Jul-26 00:32N 35°25' E 015°37'0 0.4
2015-Jul-25 23:33N 35°25' E 015°36'0 0.3
2015-Jul-25 22:33N 35°25' E 015°36'1 0.3
2015-Jul-25 20:07N 35°26' E 015°36'6 0.7
2015-Jul-25 10:28N 35°32' E 015°34'4 0.9
2015-Jul-25 06:32N 35°30' E 015°30'5 5.4
2015-Jul-25 05:33N 35°25' E 015°29'1 0.9
2015-Jul-25 04:33N 35°24' E 015°28'1 0.7
2015-Jul-25 03:32N 35°24' E 015°27'1 0.5
2015-Jul-25 02:33N 35°24' E 015°27'0 0.3
2015-Jul-25 01:30N 35°24' E 015°26'0 0.1
2015-Jul-24 22:18N 35°24' E 015°27'0 0.2
2015-Jul-24 21:33N 35°24' E 015°27'1 0.5
2015-Jul-24 19:23N 35°25' E 015°27'1 0.7
2015-Jul-24 18:33N 35°25' E 015°27'3 0.5
2015-Jul-24 12:28N 35°27' E 015°24'  

Dump ship's entire track history